Yoshkar-Ola, Russia
Current Conditions -  °F | °C
As of 4:30 PM on Friday 28 Nov 2014 (Local Time) from UWKS Reporting Station
Overcast Overcast  
Wind Chill: 13°   Ceiling: 1300
Heat Index: 21°   Visibility: 4mi
Dew Point: 18°   Wind: 7mph
Humidity: 86%   Direction: 250°WSW
Pressure: 30.65"   Gusts: NA
Location:  56.64°N, 47.87°E
Report Text: UWKS 281330Z 25003MPS 7000 BKN013 OVC066 M06/M08 Q1038 NOSIGRMK QFE764 24420058
Loading
Personal Weather Stations






























Interactive Weather Map New forecast layout! Learn more

10-Day Weather Forecast

Advertisements
Track Severe Weather on mobile